sensor_id;sensor_type;location;lat;lon;timestamp;pressure;altitude;pressure_sealevel;temperature;humidity
35248;BME280;21380;52.194;20.520;2023-11-18T00:01:25;100599.56;;;15.66;65.64
35248;BME280;21380;52.194;20.520;2023-11-18T00:03:50;100603.00;;;15.65;65.40
35248;BME280;21380;52.194;20.520;2023-11-18T00:06:16;100606.38;;;15.61;65.64
35248;BME280;21380;52.194;20.520;2023-11-18T00:08:42;100607.22;;;15.60;65.83
35248;BME280;21380;52.194;20.520;2023-11-18T00:11:09;100601.03;;;15.55;65.51
35248;BME280;21380;52.194;20.520;2023-11-18T00:13:37;100608.91;;;15.60;65.65
35248;BME280;21380;52.194;20.520;2023-11-18T00:16:08;100611.44;;;15.55;65.74
35248;BME280;21380;52.194;20.520;2023-11-18T00:18:40;100613.28;;;15.61;65.64
35248;BME280;21380;52.194;20.520;2023-11-18T00:21:06;100616.69;;;15.58;65.63
35248;BME280;21380;52.194;20.520;2023-11-18T00:23:33;100614.91;;;15.55;65.56
35248;BME280;21380;52.194;20.520;2023-11-18T00:25:59;100616.63;;;15.55;65.53
35248;BME280;21380;52.194;20.520;2023-11-18T00:28:25;100620.09;;;15.55;65.26
35248;BME280;21380;52.194;20.520;2023-11-18T00:30:51;100620.06;;;15.54;65.54
35248;BME280;21380;52.194;20.520;2023-11-18T00:33:18;100632.25;;;15.55;65.48
35248;BME280;21380;52.194;20.520;2023-11-18T00:35:43;100633.09;;;15.55;65.31
35248;BME280;21380;52.194;20.520;2023-11-18T00:38:11;100633.97;;;15.56;65.15
35248;BME280;21380;52.194;20.520;2023-11-18T00:40:37;100631.31;;;15.53;65.55
35248;BME280;21380;52.194;20.520;2023-11-18T00:43:03;100631.22;;;15.50;65.21
35248;BME280;21380;52.194;20.520;2023-11-18T00:45:29;100636.41;;;15.50;65.44
35248;BME280;21380;52.194;20.520;2023-11-18T00:47:55;100633.75;;;15.47;65.38
35248;BME280;21380;52.194;20.520;2023-11-18T00:50:21;100645.13;;;15.50;65.08
35248;BME280;21380;52.194;20.520;2023-11-18T00:52:47;100640.78;;;15.51;65.25
35248;BME280;21380;52.194;20.520;2023-11-18T00:55:14;100645.03;;;15.47;65.50
35248;BME280;21380;52.194;20.520;2023-11-18T00:57:40;100638.09;;;15.46;64.92
35248;BME280;21380;52.194;20.520;2023-11-18T01:00:12;100646.75;;;15.47;65.21
35248;BME280;21380;52.194;20.520;2023-11-18T01:02:48;100644.16;;;15.47;65.09
35248;BME280;21380;52.194;20.520;2023-11-18T01:05:17;100647.69;;;15.49;65.15
35248;BME280;21380;52.194;20.520;2023-11-18T01:07:42;100655.50;;;15.49;65.20
35248;BME280;21380;52.194;20.520;2023-11-18T01:10:10;100648.41;;;15.43;65.31
35248;BME280;21380;52.194;20.520;2023-11-18T01:12:36;100652.88;;;15.49;64.70
35248;BME280;21380;52.194;20.520;2023-11-18T01:15:03;100652.03;;;15.50;65.09
35248;BME280;21380;52.194;20.520;2023-11-18T01:17:29;100640.44;;;15.35;64.99
35248;BME280;21380;52.194;20.520;2023-11-18T01:19:57;100637.06;;;15.39;65.02
35248;BME280;21380;52.194;20.520;2023-11-18T01:22:23;100645.81;;;15.43;65.27
35248;BME280;21380;52.194;20.520;2023-11-18T01:24:49;100646.66;;;15.42;65.33
35248;BME280;21380;52.194;20.520;2023-11-18T01:27:16;100650.97;;;15.42;65.53
35248;BME280;21380;52.194;20.520;2023-11-18T01:29:45;100651.97;;;15.47;65.27
35248;BME280;21380;52.194;20.520;2023-11-18T01:32:12;100649.34;;;15.45;65.35
35248;BME280;21380;52.194;20.520;2023-11-18T01:34:39;100639.75;;;15.43;65.03
35248;BME280;21380;52.194;20.520;2023-11-18T01:37:06;100644.16;;;15.47;65.16
35248;BME280;21380;52.194;20.520;2023-11-18T01:39:33;100638.84;;;15.42;64.73
35248;BME280;21380;52.194;20.520;2023-11-18T01:41:59;100651.13;;;15.48;64.83
35248;BME280;21380;52.194;20.520;2023-11-18T01:44:26;100642.34;;;15.43;65.12
35248;BME280;21380;52.194;20.520;2023-11-18T01:46:59;100635.44;;;15.45;65.28
35248;BME280;21380;52.194;20.520;2023-11-18T01:49:32;100634.53;;;15.43;64.82
35248;BME280;21380;52.194;20.520;2023-11-18T01:52:02;100635.44;;;15.45;64.88
35248;BME280;21380;52.194;20.520;2023-11-18T01:54:28;100642.38;;;15.44;64.68
35248;BME280;21380;52.194;20.520;2023-11-18T01:56:55;100644.00;;;15.40;65.21
35248;BME280;21380;52.194;20.520;2023-11-18T01:59:21;100640.59;;;15.43;65.00
35248;BME280;21380;52.194;20.520;2023-11-18T02:01:51;100638.97;;;15.47;64.85
35248;BME280;21380;52.194;20.520;2023-11-18T02:04:18;100646.41;;;15.31;65.00
35248;BME280;21380;52.194;20.520;2023-11-18T02:06:46;100647.47;;;15.41;64.83
35248;BME280;21380;52.194;20.520;2023-11-18T02:09:20;100650.06;;;15.41;64.93
35248;BME280;21380;52.194;20.520;2023-11-18T02:14:39;100645.78;;;15.42;64.66
35248;BME280;21380;52.194;20.520;2023-11-18T02:17:06;100656.22;;;15.45;64.81
35248;BME280;21380;52.194;20.520;2023-11-18T02:19:35;100640.44;;;15.35;64.98
35248;BME280;21380;52.194;20.520;2023-11-18T02:22:01;100655.34;;;15.43;65.03
35248;BME280;21380;52.194;20.520;2023-11-18T02:24:28;100661.44;;;15.45;64.86
35248;BME280;21380;52.194;20.520;2023-11-18T02:27:00;100664.13;;;15.48;64.79
35248;BME280;21380;52.194;20.520;2023-11-18T02:29:30;100662.34;;;15.45;64.41
35248;BME280;21380;52.194;20.520;2023-11-18T02:31:59;100675.00;;;15.31;64.69
35248;BME280;21380;52.194;20.520;2023-11-18T02:34:31;100660.41;;;15.38;64.84
35248;BME280;21380;52.194;20.520;2023-11-18T02:36:58;100660.47;;;15.41;64.64
35248;BME280;21380;52.194;20.520;2023-11-18T02:39:34;100664.84;;;15.42;64.37
35248;BME280;21380;52.194;20.520;2023-11-18T02:42:04;100676.06;;;15.41;64.29
35248;BME280;21380;52.194;20.520;2023-11-18T02:44:35;100662.16;;;15.37;64.12
35248;BME280;21380;52.194;20.520;2023-11-18T02:47:02;100669.16;;;15.40;64.51
35248;BME280;21380;52.194;20.520;2023-11-18T02:49:31;100682.13;;;15.40;64.28
35248;BME280;21380;52.194;20.520;2023-11-18T02:51:57;100677.00;;;15.43;64.36
35248;BME280;21380;52.194;20.520;2023-11-18T02:54:24;100678.75;;;15.43;64.38
35248;BME280;21380;52.194;20.520;2023-11-18T02:56:49;100673.44;;;15.39;64.60
35248;BME280;21380;52.194;20.520;2023-11-18T02:59:16;100682.16;;;15.42;64.51
35248;BME280;21380;52.194;20.520;2023-11-18T03:01:42;100686.47;;;15.41;64.14
35248;BME280;21380;52.194;20.520;2023-11-18T03:04:08;100689.88;;;15.38;64.34
35248;BME280;21380;52.194;20.520;2023-11-18T03:06:34;100698.63;;;15.42;64.21
35248;BME280;21380;52.194;20.520;2023-11-18T03:09:01;100705.56;;;15.42;64.04
35248;BME280;21380;52.194;20.520;2023-11-18T03:11:28;100719.44;;;15.42;64.29
35248;BME280;21380;52.194;20.520;2023-11-18T03:13:57;100691.56;;;15.36;64.44
35248;BME280;21380;52.194;20.520;2023-11-18T03:16:23;100696.84;;;15.39;63.77
35248;BME280;21380;52.194;20.520;2023-11-18T03:18:50;100702.06;;;15.41;64.06
35248;BME280;21380;52.194;20.520;2023-11-18T03:21:16;100706.41;;;15.40;64.28
35248;BME280;21380;52.194;20.520;2023-11-18T03:23:43;100709.88;;;15.41;63.97
35248;BME280;21380;52.194;20.520;2023-11-18T03:26:09;100709.84;;;15.39;63.99
35248;BME280;21380;52.194;20.520;2023-11-18T03:28:38;100717.56;;;15.36;64.25
35248;BME280;21380;52.194;20.520;2023-11-18T03:31:04;100720.22;;;15.39;64.05
35248;BME280;21380;52.194;20.520;2023-11-18T03:33:31;100723.72;;;15.40;63.77
35248;BME280;21380;52.194;20.520;2023-11-18T03:35:56;100725.53;;;15.43;63.75
35248;BME280;21380;52.194;20.520;2023-11-18T03:38:23;100722.84;;;15.39;63.96
35248;BME280;21380;52.194;20.520;2023-11-18T03:40:49;100713.25;;;15.37;63.80
35248;BME280;21380;52.194;20.520;2023-11-18T03:43:15;100720.22;;;15.39;63.90
35248;BME280;21380;52.194;20.520;2023-11-18T03:45:42;100723.66;;;15.38;64.11
35248;BME280;21380;52.194;20.520;2023-11-18T03:48:09;100726.25;;;15.37;63.50
35248;BME280;21380;52.194;20.520;2023-11-18T03:50:34;100732.28;;;15.36;63.74
35248;BME280;21380;52.194;20.520;2023-11-18T03:53:00;100734.03;;;15.37;63.75
35248;BME280;21380;52.194;20.520;2023-11-18T03:55:28;100732.34;;;15.37;63.76
35248;BME280;21380;52.194;20.520;2023-11-18T03:57:55;100729.78;;;15.39;63.83
35248;BME280;21380;52.194;20.520;2023-11-18T04:00:23;100730.59;;;15.38;63.50
35248;BME280;21380;52.194;20.520;2023-11-18T04:02:58;100739.22;;;15.37;63.72
35248;BME280;21380;52.194;20.520;2023-11-18T04:05:25;100733.06;;;15.33;63.83
35248;BME280;21380;52.194;20.520;2023-11-18T04:07:51;100740.00;;;15.33;63.54
35248;BME280;21380;52.194;20.520;2023-11-18T04:10:18;100739.09;;;15.32;64.01
35248;BME280;21380;52.194;20.520;2023-11-18T04:12:45;100741.81;;;15.35;63.56
35248;BME280;21380;52.194;20.520;2023-11-18T04:15:12;100751.38;;;15.36;63.55
35248;BME280;21380;52.194;20.520;2023-11-18T04:17:39;100754.69;;;15.32;63.76
35248;BME280;21380;52.194;20.520;2023-11-18T04:20:06;100753.88;;;15.33;63.68
35248;BME280;21380;52.194;20.520;2023-11-18T04:22:43;100754.78;;;15.34;63.26
35248;BME280;21380;52.194;20.520;2023-11-18T04:25:10;100764.25;;;15.33;63.57
35248;BME280;21380;52.194;20.520;2023-11-18T04:27:40;100766.88;;;15.33;63.22
35248;BME280;21380;52.194;20.520;2023-11-18T04:30:07;100764.22;;;15.32;63.38
35248;BME280;21380;52.194;20.520;2023-11-18T04:32:34;100768.63;;;15.34;63.61
35248;BME280;21380;52.194;20.520;2023-11-18T04:35:01;100763.38;;;15.31;63.31
35248;BME280;21380;52.194;20.520;2023-11-18T04:37:33;100771.16;;;15.31;63.57
35248;BME280;21380;52.194;20.520;2023-11-18T04:40:02;100769.47;;;15.33;63.57
35248;BME280;21380;52.194;20.520;2023-11-18T04:42:29;100764.34;;;15.35;63.54
35248;BME280;21380;52.194;20.520;2023-11-18T04:44:56;100768.63;;;15.34;63.53
35248;BME280;21380;52.194;20.520;2023-11-18T04:47:23;100772.97;;;15.34;63.18
35248;BME280;21380;52.194;20.520;2023-11-18T04:49:51;100773.78;;;15.33;63.66
35248;BME280;21380;52.194;20.520;2023-11-18T04:52:17;100772.06;;;15.33;63.34
35248;BME280;21380;52.194;20.520;2023-11-18T04:54:44;100779.81;;;15.32;63.39
35248;BME280;21380;52.194;20.520;2023-11-18T04:57:14;100784.19;;;15.33;62.99
35248;BME280;21380;52.194;20.520;2023-11-18T04:59:41;100778.19;;;15.35;63.03
35248;BME280;21380;52.194;20.520;2023-11-18T05:02:08;100777.22;;;15.32;63.16
35248;BME280;21380;52.194;20.520;2023-11-18T05:04:34;100781.56;;;15.31;63.08
35248;BME280;21380;52.194;20.520;2023-11-18T05:06:59;100781.50;;;15.30;63.38
35248;BME280;21380;52.194;20.520;2023-11-18T05:09:25;100778.91;;;15.30;63.02
35248;BME280;21380;52.194;20.520;2023-11-18T05:11:51;100789.34;;;15.31;62.98
35248;BME280;21380;52.194;20.520;2023-11-18T05:14:18;100784.97;;;15.29;63.11
35248;BME280;21380;52.194;20.520;2023-11-18T05:16:45;100785.88;;;15.32;63.05
35248;BME280;21380;52.194;20.520;2023-11-18T05:19:11;100789.25;;;15.28;62.88
35248;BME280;21380;52.194;20.520;2023-11-18T05:21:37;100790.19;;;15.30;62.94
35248;BME280;21380;52.194;20.520;2023-11-18T05:24:03;100798.00;;;15.30;62.80
35248;BME280;21380;52.194;20.520;2023-11-18T05:26:29;100795.41;;;15.32;63.07
35248;BME280;21380;52.194;20.520;2023-11-18T05:28:55;100803.22;;;15.32;62.59
35248;BME280;21380;52.194;20.520;2023-11-18T05:31:21;100806.69;;;15.32;62.76
35248;BME280;21380;52.194;20.520;2023-11-18T05:33:47;100807.44;;;15.28;63.12
35248;BME280;21380;52.194;20.520;2023-11-18T05:36:18;100817.00;;;15.29;62.80
35248;BME280;21380;52.194;20.520;2023-11-18T05:38:52;100813.47;;;15.27;62.90
35248;BME280;21380;52.194;20.520;2023-11-18T05:41:18;100825.66;;;15.28;62.55
35248;BME280;21380;52.194;20.520;2023-11-18T05:43:55;100829.97;;;15.28;62.95
35248;BME280;21380;52.194;20.520;2023-11-18T05:46:25;100822.84;;;15.20;62.62
35248;BME280;21380;52.194;20.520;2023-11-18T05:48:55;100842.88;;;15.24;63.26
35248;BME280;21380;52.194;20.520;2023-11-18T05:51:25;100848.13;;;15.26;62.82
35248;BME280;21380;52.194;20.520;2023-11-18T05:53:52;100849.81;;;15.24;62.98
35248;BME280;21380;52.194;20.520;2023-11-18T05:56:19;100851.56;;;15.25;62.91
35248;BME280;21380;52.194;20.520;2023-11-18T05:58:48;100864.59;;;15.27;62.59
35248;BME280;21380;52.194;20.520;2023-11-18T06:01:13;100858.53;;;15.26;62.90
35248;BME280;21380;52.194;20.520;2023-11-18T06:03:41;100858.47;;;15.24;62.40
35248;BME280;21380;52.194;20.520;2023-11-18T06:06:09;100859.38;;;15.25;62.56
35248;BME280;21380;52.194;20.520;2023-11-18T06:08:36;100873.22;;;15.26;62.66
35248;BME280;21380;52.194;20.520;2023-11-18T06:11:10;100874.13;;;15.26;62.76
35248;BME280;21380;52.194;20.520;2023-11-18T06:13:44;100865.44;;;15.26;62.47
35248;BME280;21380;52.194;20.520;2023-11-18T06:16:18;100877.59;;;15.27;62.63
35248;BME280;21380;52.194;20.520;2023-11-18T06:18:55;100877.56;;;15.25;62.88
35248;BME280;21380;52.194;20.520;2023-11-18T06:21:25;100895.75;;;15.25;62.58
35248;BME280;21380;52.194;20.520;2023-11-18T06:23:56;100890.47;;;15.23;63.07
35248;BME280;21380;52.194;20.520;2023-11-18T06:26:23;100887.78;;;15.19;62.81
35248;BME280;21380;52.194;20.520;2023-11-18T06:29:01;100900.00;;;15.23;62.71
35248;BME280;21380;52.194;20.520;2023-11-18T06:31:27;100893.09;;;15.23;62.84
35248;BME280;21380;52.194;20.520;2023-11-18T06:33:55;100904.34;;;15.22;62.77
35248;BME280;21380;52.194;20.520;2023-11-18T06:36:22;100904.34;;;15.22;62.46
35248;BME280;21380;52.194;20.520;2023-11-18T06:38:49;100905.31;;;15.26;62.45
35248;BME280;21380;52.194;20.520;2023-11-18T06:41:16;100906.06;;;15.23;62.39
35248;BME280;21380;52.194;20.520;2023-11-18T06:43:44;100912.25;;;15.27;62.18
35248;BME280;21380;52.194;20.520;2023-11-18T06:46:24;100906.97;;;15.24;62.51
35248;BME280;21380;52.194;20.520;2023-11-18T06:48:52;100919.13;;;15.25;62.51
35248;BME280;21380;52.194;20.520;2023-11-18T06:51:21;100920.00;;;15.26;62.54
35248;BME280;21380;52.194;20.520;2023-11-18T06:53:54;100905.81;;;15.14;62.50
35248;BME280;21380;52.194;20.520;2023-11-18T06:56:23;100932.13;;;15.25;62.30
35248;BME280;21380;52.194;20.520;2023-11-18T06:58:50;100927.78;;;15.24;62.81
35248;BME280;21380;52.194;20.520;2023-11-18T07:01:16;100937.34;;;15.25;62.75
35248;BME280;21380;52.194;20.520;2023-11-18T07:03:43;100930.41;;;15.26;62.63
35248;BME280;21380;52.194;20.520;2023-11-18T07:06:09;100940.81;;;15.26;62.46
35248;BME280;21380;52.194;20.520;2023-11-18T07:08:36;100927.72;;;15.22;62.40
35248;BME280;21380;52.194;20.520;2023-11-18T07:11:03;100946.03;;;15.27;62.12
35248;BME280;21380;52.194;20.520;2023-11-18T07:13:29;100945.16;;;15.27;62.47
35248;BME280;21380;52.194;20.520;2023-11-18T07:15:55;100950.41;;;15.28;62.55
35248;BME280;21380;52.194;20.520;2023-11-18T07:18:23;100931.94;;;15.19;62.54
35248;BME280;21380;52.194;20.520;2023-11-18T07:20:49;100945.22;;;15.28;62.40
35248;BME280;21380;52.194;20.520;2023-11-18T07:23:19;100951.34;;;15.30;62.07
35248;BME280;21380;52.194;20.520;2023-11-18T07:25:45;100959.09;;;15.29;62.05
35248;BME280;21380;52.194;20.520;2023-11-18T07:28:12;100967.69;;;15.26;62.28
35248;BME280;21380;52.194;20.520;2023-11-18T07:30:43;100975.50;;;15.26;62.58
35248;BME280;21380;52.194;20.520;2023-11-18T07:33:14;100985.00;;;15.26;62.24
35248;BME280;21380;52.194;20.520;2023-11-18T07:35:40;100986.72;;;15.25;62.57
35248;BME280;21380;52.194;20.520;2023-11-18T07:38:06;100988.50;;;15.26;62.17
35248;BME280;21380;52.194;20.520;2023-11-18T07:40:33;100994.44;;;15.23;62.53
35248;BME280;21380;52.194;20.520;2023-11-18T07:43:00;100992.72;;;15.22;62.50
35248;BME280;21380;52.194;20.520;2023-11-18T07:45:35;100999.72;;;15.25;62.48
35248;BME280;21380;52.194;20.520;2023-11-18T07:48:04;100996.28;;;15.26;62.47
35248;BME280;21380;52.194;20.520;2023-11-18T07:50:39;101006.72;;;15.28;62.66
35248;BME280;21380;52.194;20.520;2023-11-18T07:53:08;101002.34;;;15.27;62.61
35248;BME280;21380;52.194;20.520;2023-11-18T07:55:34;101009.28;;;15.26;62.48
35248;BME280;21380;52.194;20.520;2023-11-18T07:58:03;101019.69;;;15.26;62.42
35248;BME280;21380;52.194;20.520;2023-11-18T08:00:40;101017.06;;;15.26;62.96
35248;BME280;21380;52.194;20.520;2023-11-18T08:03:07;101022.31;;;15.28;62.64
35248;BME280;21380;52.194;20.520;2023-11-18T08:05:40;101019.72;;;15.28;62.64
35248;BME280;21380;52.194;20.520;2023-11-18T08:08:07;101013.69;;;15.29;62.48
35248;BME280;21380;52.194;20.520;2023-11-18T08:10:34;101010.16;;;15.27;62.44
35248;BME280;21380;52.194;20.520;2023-11-18T08:13:07;101016.31;;;15.30;62.44
35248;BME280;21380;52.194;20.520;2023-11-18T08:15:34;101022.44;;;15.32;61.93
35248;BME280;21380;52.194;20.520;2023-11-18T08:18:01;101021.56;;;15.32;61.88
35248;BME280;21380;52.194;20.520;2023-11-18T08:20:28;101027.56;;;15.29;62.39
35248;BME280;21380;52.194;20.520;2023-11-18T08:22:54;101037.09;;;15.29;62.31
35248;BME280;21380;52.194;20.520;2023-11-18T08:25:20;101027.50;;;15.28;62.49
35248;BME280;21380;52.194;20.520;2023-11-18T08:27:48;101032.66;;;15.26;62.62
35248;BME280;21380;52.194;20.520;2023-11-18T08:30:14;101032.66;;;15.26;62.21
35248;BME280;21380;52.194;20.520;2023-11-18T08:32:45;101033.63;;;15.30;62.27
35248;BME280;21380;52.194;20.520;2023-11-18T08:35:12;101033.59;;;15.28;61.86
35248;BME280;21380;52.194;20.520;2023-11-18T08:37:42;101033.59;;;15.28;61.70
35248;BME280;21380;52.194;20.520;2023-11-18T08:40:08;101043.22;;;15.32;62.16
35248;BME280;21380;52.194;20.520;2023-11-18T08:42:44;101033.53;;;15.27;61.83
35248;BME280;21380;52.194;20.520;2023-11-18T08:45:19;101040.91;;;15.40;63.82
35248;BME280;21380;52.194;20.520;2023-11-18T08:47:48;101040.41;;;15.53;66.28
35248;BME280;21380;52.194;20.520;2023-11-18T08:50:15;101043.78;;;15.51;65.25
35248;BME280;21380;52.194;20.520;2023-11-18T08:52:43;101052.34;;;15.47;64.62
35248;BME280;21380;52.194;20.520;2023-11-18T08:55:10;101053.19;;;15.46;64.05
35248;BME280;21380;52.194;20.520;2023-11-18T08:57:42;101059.13;;;15.42;63.95
35248;BME280;21380;52.194;20.520;2023-11-18T09:00:26;101059.88;;;15.37;63.72
35248;BME280;21380;52.194;20.520;2023-11-18T09:03:18;101067.72;;;15.39;63.43
35248;BME280;21380;52.194;20.520;2023-11-18T09:05:52;101059.16;;;15.43;63.78
35248;BME280;21380;52.194;20.520;2023-11-18T09:08:32;101066.94;;;15.42;63.23
35248;BME280;21380;52.194;20.520;2023-11-18T09:11:02;101063.44;;;15.41;63.15
35248;BME280;21380;52.194;20.520;2023-11-18T09:13:28;101056.41;;;15.38;63.18
35248;BME280;21380;52.194;20.520;2023-11-18T09:15:58;101070.34;;;15.40;62.82
35248;BME280;21380;52.194;20.520;2023-11-18T09:18:51;101068.47;;;15.35;62.78
35248;BME280;21380;52.194;20.520;2023-11-18T09:21:17;101082.28;;;15.34;63.18
35248;BME280;21380;52.194;20.520;2023-11-18T09:23:50;101074.63;;;15.38;62.66
35248;BME280;21380;52.194;20.520;2023-11-18T09:26:17;101071.94;;;15.35;62.92
35248;BME280;21380;52.194;20.520;2023-11-18T09:28:43;101081.53;;;15.38;62.94
35248;BME280;21380;52.194;20.520;2023-11-18T09:31:12;101077.19;;;15.37;62.64
35248;BME280;21380;52.194;20.520;2023-11-18T09:33:40;101089.22;;;12.15;57.06
35248;BME280;21380;52.194;20.520;2023-11-18T09:36:11;101084.84;;;13.59;59.33
35248;BME280;21380;52.194;20.520;2023-11-18T09:38:39;101075.59;;;14.13;60.99
35248;BME280;21380;52.194;20.520;2023-11-18T09:41:10;101090.31;;;11.27;56.17
35248;BME280;21380;52.194;20.520;2023-11-18T09:43:41;101080.31;;;11.71;59.89
35248;BME280;21380;52.194;20.520;2023-11-18T09:46:20;101069.31;;;12.73;60.52
35248;BME280;21380;52.194;20.520;2023-11-18T09:48:50;101070.72;;;13.30;61.04
35248;BME280;21380;52.194;20.520;2023-11-18T09:51:27;101075.72;;;13.69;59.94
35248;BME280;21380;52.194;20.520;2023-11-18T09:53:59;101059.66;;;14.02;60.36
35248;BME280;21380;52.194;20.520;2023-11-18T09:56:45;101073.63;;;14.30;63.95
35248;BME280;21380;52.194;20.520;2023-11-18T09:59:54;101077.56;;;14.44;62.63
35248;BME280;21380;52.194;20.520;2023-11-18T10:02:23;101078.78;;;14.54;61.50
35248;BME280;21380;52.194;20.520;2023-11-18T10:04:50;101075.47;;;14.58;61.24
35248;BME280;21380;52.194;20.520;2023-11-18T10:07:27;101076.63;;;14.67;60.96
35248;BME280;21380;52.194;20.520;2023-11-18T10:09:55;101071.59;;;14.71;60.97
35248;BME280;21380;52.194;20.520;2023-11-18T10:12:25;101084.63;;;14.73;60.86
35248;BME280;21380;52.194;20.520;2023-11-18T10:14:52;101086.38;;;14.72;60.74
35248;BME280;21380;52.194;20.520;2023-11-18T10:17:18;101086.56;;;14.79;60.93
35248;BME280;21380;52.194;20.520;2023-11-18T10:22:25;101087.44;;;14.79;60.64
35248;BME280;21380;52.194;20.520;2023-11-18T10:24:52;101101.50;;;14.86;60.77
35248;BME280;21380;52.194;20.520;2023-11-18T10:27:29;101097.19;;;14.85;60.86
35248;BME280;21380;52.194;20.520;2023-11-18T10:30:05;101096.41;;;14.87;60.84
35248;BME280;21380;52.194;20.520;2023-11-18T10:32:56;101091.25;;;14.89;60.66
35248;BME280;21380;52.194;20.520;2023-11-18T10:35:32;101092.16;;;14.91;60.97
35248;BME280;21380;52.194;20.520;2023-11-18T10:38:01;101079.94;;;14.88;61.05
35248;BME280;21380;52.194;20.520;2023-11-18T10:40:33;101088.03;;;14.96;61.26
35248;BME280;21380;52.194;20.520;2023-11-18T10:43:03;101089.69;;;14.94;61.04
35248;BME280;21380;52.194;20.520;2023-11-18T10:45:37;101098.41;;;14.96;61.01
35248;BME280;21380;52.194;20.520;2023-11-18T10:48:06;101101.50;;;14.86;61.22
35248;BME280;21380;52.194;20.520;2023-11-18T10:50:32;101095.84;;;14.98;61.26
35248;BME280;21380;52.194;20.520;2023-11-18T10:53:02;101095.94;;;15.01;61.79
35248;BME280;21380;52.194;20.520;2023-11-18T10:55:38;101095.16;;;15.03;62.35
35248;BME280;21380;52.194;20.520;2023-11-18T10:58:06;101105.69;;;15.06;62.58
35248;BME280;21380;52.194;20.520;2023-11-18T11:00:51;101096.03;;;15.02;61.84
35248;BME280;21380;52.194;20.520;2023-11-18T11:03:21;101110.88;;;15.06;62.07
35248;BME280;21380;52.194;20.520;2023-11-18T11:05:50;101109.94;;;15.04;62.11
35248;BME280;21380;52.194;20.520;2023-11-18T11:08:18;101108.94;;;15.01;61.82
35248;BME280;21380;52.194;20.520;2023-11-18T11:10:46;101117.84;;;15.07;62.04
35248;BME280;21380;52.194;20.520;2023-11-18T11:13:16;101115.31;;;15.11;61.70
35248;BME280;21380;52.194;20.520;2023-11-18T11:15:48;101126.53;;;15.10;61.71
35248;BME280;21380;52.194;20.520;2023-11-18T11:18:23;101127.41;;;15.08;61.72
35248;BME280;21380;52.194;20.520;2023-11-18T11:21:13;101137.72;;;15.07;61.38
35248;BME280;21380;52.194;20.520;2023-11-18T11:24:04;101142.84;;;15.04;61.95
35248;BME280;21380;52.194;20.520;2023-11-18T11:27:40;101139.41;;;15.05;62.22
35248;BME280;21380;52.194;20.520;2023-11-18T11:29:44;101134.22;;;15.05;61.70
35248;BME280;21380;52.194;20.520;2023-11-18T11:32:26;101138.63;;;15.07;61.47
35248;BME280;21380;52.194;20.520;2023-11-18T11:35:01;101136.91;;;15.08;61.81
35248;BME280;21380;52.194;20.520;2023-11-18T11:37:34;101151.53;;;15.06;61.58
35248;BME280;21380;52.194;20.520;2023-11-18T11:40:04;101146.41;;;15.07;61.81
35248;BME280;21380;52.194;20.520;2023-11-18T11:42:34;101156.41;;;14.95;61.65
35248;BME280;21380;52.194;20.520;2023-11-18T11:45:02;101163.66;;;15.05;62.02
35248;BME280;21380;52.194;20.520;2023-11-18T11:47:29;101162.06;;;15.09;61.75
35248;BME280;21380;52.194;20.520;2023-11-18T11:50:19;101165.41;;;15.05;61.58
35248;BME280;21380;52.194;20.520;2023-11-18T11:52:53;101164.63;;;15.07;61.54
35248;BME280;21380;52.194;20.520;2023-11-18T11:55:47;101170.59;;;15.05;61.79
35248;BME280;21380;52.194;20.520;2023-11-18T11:58:30;101169.66;;;15.03;61.55
35248;BME280;21380;52.194;20.520;2023-11-18T12:01:18;101171.47;;;15.05;61.38
35248;BME280;21380;52.194;20.520;2023-11-18T12:03:49;101179.31;;;15.07;61.61
35248;BME280;21380;52.194;20.520;2023-11-18T12:06:19;101181.06;;;15.08;61.78
35248;BME280;21380;52.194;20.520;2023-11-18T12:08:53;101184.50;;;15.07;62.13
35248;BME280;21380;52.194;20.520;2023-11-18T12:11:19;101192.25;;;15.05;62.18
35248;BME280;21380;52.194;20.520;2023-11-18T12:14:07;101195.66;;;15.04;61.79
35248;BME280;21380;52.194;20.520;2023-11-18T12:17:07;101182.69;;;15.04;62.04
35248;BME280;21380;52.194;20.520;2023-11-18T12:19:37;101192.28;;;15.07;62.04
35248;BME280;21380;52.194;20.520;2023-11-18T12:22:20;101200.09;;;15.07;61.82
35248;BME280;21380;52.194;20.520;2023-11-18T12:27:45;101206.88;;;15.03;61.72
35248;BME280;21380;52.194;20.520;2023-11-18T12:33:03;101217.28;;;15.03;61.90
35248;BME280;21380;52.194;20.520;2023-11-18T12:36:03;101219.88;;;15.03;62.27
35248;BME280;21380;52.194;20.520;2023-11-18T12:41:40;101229.31;;;15.26;65.63
35248;BME280;21380;52.194;20.520;2023-11-18T12:44:29;101231.19;;;15.30;65.25
35248;BME280;21380;52.194;20.520;2023-11-18T12:47:01;101238.09;;;15.29;64.31
35248;BME280;21380;52.194;20.520;2023-11-18T12:49:41;101227.53;;;15.24;63.92
35248;BME280;21380;52.194;20.520;2023-11-18T12:52:09;101238.75;;;15.23;63.95
35248;BME280;21380;52.194;20.520;2023-11-18T12:54:36;101239.53;;;15.21;63.45
35248;BME280;21380;52.194;20.520;2023-11-18T12:57:09;101236.13;;;15.22;63.29
35248;BME280;21380;52.194;20.520;2023-11-18T12:59:37;101236.81;;;15.16;63.48
35248;BME280;21380;52.194;20.520;2023-11-18T13:02:10;101240.41;;;15.20;63.32
35248;BME280;21380;52.194;20.520;2023-11-18T13:04:44;101249.84;;;15.18;63.10
35248;BME280;21380;52.194;20.520;2023-11-18T13:07:14;101247.19;;;15.16;63.46
35248;BME280;21380;52.194;20.520;2023-11-18T13:09:40;101254.06;;;15.14;63.04